createdAt,value
2023-03-06T00:05:35.719Z,4.45
2023-03-06T00:08:43.870Z,4.73
2023-03-06T00:11:50.489Z,5.18
2023-03-06T00:14:56.199Z,5.65
2023-03-06T00:18:01.431Z,5.85
2023-03-06T00:21:13.430Z,8.17
2023-03-06T00:24:24.718Z,6.93
2023-03-06T00:27:34.675Z,7.32
2023-03-06T00:30:39.611Z,7.72
2023-03-06T00:33:45.046Z,8.52
2023-03-06T00:36:49.135Z,9.15
2023-03-06T00:39:53.298Z,7.35
2023-03-06T00:42:58.329Z,9.55
2023-03-06T00:46:02.243Z,9.25
2023-03-06T00:49:06.637Z,8.85
2023-03-06T00:52:11.933Z,9.18
2023-03-06T00:55:19.418Z,6.63
2023-03-06T00:58:35.466Z,7.07
2023-03-06T01:01:45.820Z,7.72
2023-03-06T01:08:30.369Z,8.57
2023-03-06T01:11:41.872Z,10.00
2023-03-06T01:14:47.979Z,9.40
2023-03-06T01:17:55.592Z,4.07
2023-03-06T01:21:00.338Z,6.45
2023-03-06T01:24:04.627Z,5.55
2023-03-06T01:27:09.038Z,3.85
2023-03-06T01:30:13.774Z,3.40
2023-03-06T01:33:19.029Z,5.10
2023-03-06T01:36:23.064Z,2.60
2023-03-06T01:39:30.768Z,3.03
2023-03-06T01:42:34.509Z,3.15
2023-03-06T01:45:38.912Z,2.10
2023-03-06T01:48:43.696Z,2.88
2023-03-06T01:52:13.158Z,2.33
2023-03-06T01:55:20.958Z,3.05
2023-03-06T01:58:27.539Z,3.20
2023-03-06T02:01:34.056Z,3.63
2023-03-06T02:04:45.486Z,3.22
2023-03-06T02:07:52.060Z,1.55
2023-03-06T02:11:14.599Z,2.70
2023-03-06T02:14:18.885Z,2.38
2023-03-06T02:17:23.854Z,2.20
2023-03-06T02:20:37.804Z,2.10
2023-03-06T02:24:03.469Z,1.83
2023-03-06T02:27:09.413Z,1.70
2023-03-06T02:30:17.950Z,2.33
2023-03-06T02:33:26.072Z,2.50
2023-03-06T02:36:33.416Z,1.85
2023-03-06T02:39:48.187Z,1.75
2023-03-06T02:43:00.386Z,3.28
2023-03-06T02:46:07.415Z,2.58
2023-03-06T02:49:15.804Z,3.17
2023-03-06T02:52:27.683Z,1.73
2023-03-06T02:59:11.953Z,1.55
2023-03-06T03:02:57.436Z,2.97
2023-03-06T03:06:05.362Z,4.00
2023-03-06T03:09:12.549Z,2.53
2023-03-06T03:12:22.691Z,2.70
2023-03-06T03:15:32.830Z,2.00
2023-03-06T03:18:42.393Z,2.40
2023-03-06T03:21:51.941Z,2.58
2023-03-06T03:25:03.320Z,2.85
2023-03-06T03:28:11.246Z,3.00
2023-03-06T03:31:22.234Z,3.53
2023-03-06T03:34:31.756Z,2.42
2023-03-06T03:37:41.418Z,1.40
2023-03-06T03:40:50.940Z,1.30
2023-03-06T03:44:01.844Z,2.30
2023-03-06T03:47:11.480Z,2.08
2023-03-06T03:50:20.608Z,3.38
2023-03-06T03:53:29.432Z,3.20
2023-03-06T03:56:39.498Z,3.83
2023-03-06T04:07:06.900Z,4.05
2023-03-06T04:10:17.570Z,1.33
2023-03-06T04:13:26.588Z,1.33
2023-03-06T04:16:35.898Z,1.50
2023-03-06T04:22:59.546Z,0.90
2023-03-06T04:26:07.734Z,1.08
2023-03-06T04:29:17.395Z,1.13
2023-03-06T04:35:47.989Z,1.00
2023-03-06T04:39:09.642Z,0.90
2023-03-06T04:42:16.247Z,0.70
2023-03-06T04:45:23.187Z,1.00
2023-03-06T04:48:29.168Z,0.80
2023-03-06T04:51:39.261Z,0.73
2023-03-06T04:54:48.273Z,0.90
2023-03-06T04:57:56.385Z,0.68
2023-03-06T05:01:05.179Z,1.08
2023-03-06T05:04:11.693Z,1.40
2023-03-06T05:07:18.160Z,0.90
2023-03-06T05:10:27.400Z,1.60
2023-03-06T05:13:34.690Z,1.08
2023-03-06T05:16:44.009Z,0.82
2023-03-06T05:19:55.824Z,1.63
2023-03-06T05:23:07.120Z,0.95
2023-03-06T05:26:17.370Z,1.17
2023-03-06T05:29:23.421Z,1.00
2023-03-06T05:35:59.194Z,0.95
2023-03-06T05:39:08.139Z,1.63
2023-03-06T05:42:18.208Z,1.38
2023-03-06T05:45:26.914Z,1.10
2023-03-06T05:48:33.490Z,0.90
2023-03-06T05:51:38.950Z,1.42
2023-03-06T05:54:45.008Z,1.35
2023-03-06T05:57:52.606Z,0.90
2023-03-06T06:00:58.756Z,1.15
2023-03-06T06:04:09.595Z,1.48
2023-03-06T06:07:19.602Z,2.22
2023-03-06T06:13:48.518Z,1.95
2023-03-06T06:35:55.136Z,0.80
2023-03-06T06:39:01.593Z,0.90
2023-03-06T06:42:29.071Z,1.23
2023-03-06T06:45:32.463Z,1.50
2023-03-06T06:48:39.642Z,1.15
2023-03-06T06:51:45.900Z,1.60
2023-03-06T06:54:52.092Z,1.52
2023-03-06T06:57:59.269Z,1.63
2023-03-06T07:01:13.027Z,1.90
2023-03-06T07:04:19.706Z,1.00
2023-03-06T07:07:26.537Z,1.77
2023-03-06T07:10:33.047Z,1.55
2023-03-06T07:13:40.326Z,1.40
2023-03-06T07:16:46.796Z,2.35
2023-03-06T07:19:53.478Z,1.42
2023-03-06T07:22:59.640Z,1.48
2023-03-06T07:26:07.446Z,1.65
2023-03-06T07:29:15.639Z,1.92
2023-03-06T07:32:24.954Z,1.65
2023-03-06T07:35:33.348Z,1.77
2023-03-06T07:38:39.977Z,2.08
2023-03-06T07:41:46.961Z,2.55
2023-03-06T07:44:53.065Z,2.67
2023-03-06T07:47:59.609Z,1.58
2023-03-06T07:51:08.629Z,1.00
2023-03-06T07:54:15.409Z,2.47
2023-03-06T07:57:21.579Z,4.63
2023-03-06T08:00:28.872Z,1.70
2023-03-06T08:03:35.868Z,1.70
2023-03-06T08:06:43.360Z,2.88
2023-03-06T08:09:50.743Z,2.00
2023-03-06T08:12:57.931Z,1.52
2023-03-06T08:16:05.146Z,1.75
2023-03-06T08:22:19.918Z,3.80
2023-03-06T08:25:26.795Z,2.50
2023-03-06T08:28:33.562Z,1.85
2023-03-06T08:31:47.505Z,1.55
2023-03-06T08:34:54.602Z,1.42
2023-03-06T08:38:01.373Z,3.10
2023-03-06T08:41:07.535Z,3.65
2023-03-06T08:44:16.466Z,2.88
2023-03-06T08:47:22.932Z,2.50
2023-03-06T08:50:29.718Z,3.83
2023-03-06T08:53:43.190Z,3.95
2023-03-06T08:56:51.164Z,3.72
2023-03-06T08:59:56.823Z,5.30
2023-03-06T09:03:02.696Z,5.30
2023-03-06T09:06:09.354Z,3.53
2023-03-06T09:09:14.892Z,4.03
2023-03-06T09:12:21.786Z,5.10
2023-03-06T09:15:27.746Z,3.85
2023-03-06T09:18:33.816Z,4.68
2023-03-06T09:21:40.280Z,5.45
2023-03-06T09:24:49.107Z,9.63
2023-03-06T09:28:10.824Z,6.90
2023-03-06T09:31:21.293Z,5.50
2023-03-06T09:34:29.107Z,3.92
2023-03-06T09:37:37.829Z,3.00
2023-03-06T09:44:25.389Z,4.10
2023-03-06T09:47:54.377Z,3.58
2023-03-06T09:51:39.358Z,3.35
2023-03-06T09:55:32.611Z,2.90
2023-03-06T09:58:48.836Z,3.17
2023-03-06T10:02:25.892Z,2.85
2023-03-06T10:05:41.503Z,2.90
2023-03-06T10:09:02.207Z,3.22
2023-03-06T10:12:45.433Z,2.10
2023-03-06T10:15:54.716Z,2.42
2023-03-06T10:19:13.445Z,2.80
2023-03-06T10:22:23.380Z,2.47
2023-03-06T10:25:34.372Z,1.98
2023-03-06T10:29:07.774Z,2.63
2023-03-06T10:32:58.314Z,2.35
2023-03-06T10:36:08.535Z,1.75
2023-03-06T10:39:25.251Z,2.90
2023-03-06T10:42:35.528Z,2.15
2023-03-06T10:45:57.297Z,2.20
2023-03-06T10:49:09.646Z,1.90
2023-03-06T10:52:18.274Z,2.35
2023-03-06T10:55:33.857Z,2.30
2023-03-06T11:04:00.532Z,2.40
2023-03-06T11:07:26.128Z,2.67
2023-03-06T11:10:37.294Z,2.92
2023-03-06T11:13:48.426Z,2.80
2023-03-06T11:16:55.706Z,2.80
2023-03-06T11:20:19.149Z,2.22
2023-03-06T11:23:48.893Z,2.40
2023-03-06T11:27:04.368Z,2.80
2023-03-06T11:30:24.838Z,2.60
2023-03-06T11:33:36.049Z,2.50
2023-03-06T11:36:48.230Z,3.28
2023-03-06T11:40:36.769Z,2.22
2023-03-06T11:43:56.232Z,2.00
2023-03-06T11:47:11.515Z,2.42
2023-03-06T11:50:19.187Z,2.20
2023-03-06T11:53:28.823Z,4.15
2023-03-06T11:56:45.143Z,2.58
2023-03-06T12:00:16.226Z,3.23
2023-03-06T12:03:35.465Z,2.70
2023-03-06T12:06:52.720Z,3.00
2023-03-06T12:10:15.104Z,3.03
2023-03-06T12:13:41.134Z,3.40
2023-03-06T12:17:14.634Z,3.60
2023-03-06T12:20:42.920Z,4.28
2023-03-06T12:24:13.007Z,4.15
2023-03-06T12:27:37.006Z,3.83
2023-03-06T12:30:49.888Z,4.03
2023-03-06T12:33:59.756Z,4.95
2023-03-06T12:37:33.793Z,4.53
2023-03-06T12:40:52.202Z,5.35
2023-03-06T12:44:41.935Z,4.57
2023-03-06T12:47:48.056Z,5.70
2023-03-06T12:50:52.996Z,4.35
2023-03-06T12:53:58.240Z,4.45
2023-03-06T12:57:02.603Z,5.53
2023-03-06T13:00:07.106Z,5.78
2023-03-06T13:03:24.703Z,6.90
2023-03-06T13:06:54.746Z,7.47
2023-03-06T13:10:21.795Z,9.60
2023-03-06T13:13:45.565Z,14.75
2023-03-06T13:16:49.365Z,16.15
2023-03-06T13:20:35.517Z,13.20
2023-03-06T13:23:52.635Z,13.80
2023-03-06T13:27:10.149Z,15.43
2023-03-06T13:30:39.745Z,14.45
2023-03-06T13:33:43.448Z,13.13
2023-03-06T13:36:47.484Z,12.07
2023-03-06T13:40:00.003Z,11.00
2023-03-06T13:43:09.821Z,12.52
2023-03-06T13:46:35.820Z,14.07
2023-03-06T13:49:47.680Z,12.63
2023-03-06T13:53:35.902Z,13.27
2023-03-06T13:57:07.292Z,14.43
2023-03-06T14:00:43.527Z,14.32
2023-03-06T14:04:20.017Z,16.17
2023-03-06T14:07:43.344Z,13.18
2023-03-06T14:10:49.054Z,15.05
2023-03-06T14:13:55.630Z,14.43
2023-03-06T14:17:00.124Z,14.57
2023-03-06T14:20:16.048Z,15.18
2023-03-06T14:23:24.172Z,13.95
2023-03-06T14:29:34.345Z,12.23
2023-03-06T14:32:40.399Z,9.90
2023-03-06T14:35:55.630Z,9.55
2023-03-06T14:39:05.190Z,9.18
2023-03-06T14:42:26.038Z,9.15
2023-03-06T14:45:30.033Z,10.35
2023-03-06T14:48:42.985Z,10.75
2023-03-06T14:51:50.448Z,11.23
2023-03-06T14:54:53.926Z,9.43
2023-03-06T14:58:14.316Z,8.15
2023-03-06T15:01:28.561Z,8.07
2023-03-06T15:04:47.939Z,7.90
2023-03-06T15:07:55.045Z,6.57
2023-03-06T15:11:04.904Z,6.05
2023-03-06T15:14:19.813Z,7.15
2023-03-06T15:17:27.155Z,6.32
2023-03-06T15:20:44.125Z,5.97
2023-03-06T15:23:50.075Z,6.15
2023-03-06T15:26:55.880Z,6.30
2023-03-06T15:30:18.301Z,7.88
2023-03-06T15:33:25.532Z,7.22
2023-03-06T15:36:31.800Z,7.57
2023-03-06T15:39:43.979Z,7.60
2023-03-06T15:42:47.321Z,7.97
2023-03-06T15:45:52.412Z,6.85
2023-03-06T15:48:57.382Z,7.13
2023-03-06T15:52:01.121Z,6.75
2023-03-06T15:55:04.948Z,6.38
2023-03-06T15:58:16.279Z,7.15
2023-03-06T16:01:20.245Z,7.82
2023-03-06T16:04:23.735Z,7.25
2023-03-06T16:07:28.407Z,8.43
2023-03-06T16:10:36.554Z,8.43
2023-03-06T16:13:40.626Z,8.98
2023-03-06T16:16:44.825Z,7.95
2023-03-06T16:19:48.616Z,8.05
2023-03-06T16:22:54.407Z,9.30
2023-03-06T16:25:57.697Z,8.65
2023-03-06T16:29:01.408Z,9.13
2023-03-06T16:32:05.095Z,7.55
2023-03-06T16:35:08.366Z,8.98
2023-03-06T16:38:11.642Z,10.00
2023-03-06T16:41:16.976Z,9.88
2023-03-06T16:44:20.618Z,8.50
2023-03-06T16:47:24.766Z,8.63
2023-03-06T16:50:34.550Z,10.38
2023-03-06T16:53:37.873Z,10.05
2023-03-06T16:56:41.744Z,16.90
2023-03-06T16:59:46.484Z,18.13
2023-03-06T17:02:50.451Z,13.55
2023-03-06T17:05:54.338Z,15.35
2023-03-06T17:08:58.687Z,14.85
2023-03-06T17:12:01.725Z,14.63
2023-03-06T17:15:06.488Z,13.77
2023-03-06T17:18:09.763Z,13.02
2023-03-06T17:21:16.222Z,12.45
2023-03-06T17:24:19.285Z,11.27
2023-03-06T17:27:23.652Z,9.68
2023-03-06T17:30:26.920Z,10.05
2023-03-06T17:33:30.719Z,10.50
2023-03-06T17:36:34.066Z,9.13
2023-03-06T17:39:39.290Z,7.50
2023-03-06T17:42:42.944Z,8.15
2023-03-06T17:45:48.069Z,7.53
2023-03-06T17:48:51.866Z,7.70
2023-03-06T17:51:57.526Z,7.93
2023-03-06T17:55:01.602Z,8.00
2023-03-06T17:58:04.902Z,8.40
2023-03-06T18:01:22.465Z,8.25
2023-03-06T18:04:26.931Z,6.85
2023-03-06T18:07:29.924Z,7.20
2023-03-06T18:10:32.873Z,6.85
2023-03-06T18:13:39.639Z,7.32
2023-03-06T18:16:43.150Z,6.68
2023-03-06T18:19:46.777Z,7.05
2023-03-06T18:22:50.909Z,5.50
2023-03-06T18:26:06.141Z,6.13
2023-03-06T18:29:10.895Z,6.07
2023-03-06T18:32:17.044Z,6.82
2023-03-06T18:35:20.035Z,6.18
2023-03-06T18:38:24.262Z,6.20
2023-03-06T18:41:27.955Z,7.22
2023-03-06T18:44:31.212Z,7.25
2023-03-06T18:47:34.924Z,7.65
2023-03-06T18:50:38.442Z,7.82
2023-03-06T18:53:44.117Z,8.07
2023-03-06T18:56:47.839Z,8.43
2023-03-06T18:59:51.239Z,8.85
2023-03-06T19:02:55.311Z,9.70
2023-03-06T19:05:59.678Z,8.77
2023-03-06T19:09:03.465Z,10.18
2023-03-06T19:12:07.590Z,10.73
2023-03-06T19:15:11.641Z,8.85
2023-03-06T19:18:18.289Z,7.93
2023-03-06T19:21:23.651Z,8.75
2023-03-06T19:24:28.001Z,7.35
2023-03-06T19:27:32.079Z,8.38
2023-03-06T19:30:36.139Z,6.80
2023-03-06T19:33:40.871Z,6.13
2023-03-06T19:36:45.422Z,7.05
2023-03-06T19:39:49.079Z,5.80
2023-03-06T19:42:53.068Z,5.90
2023-03-06T19:45:57.205Z,6.38
2023-03-06T19:49:03.450Z,5.38
2023-03-06T19:52:09.635Z,6.13
2023-03-06T19:55:13.594Z,7.47
2023-03-06T19:58:16.887Z,7.47
2023-03-06T20:01:22.332Z,7.28
2023-03-06T20:04:25.597Z,6.75
2023-03-06T20:07:29.653Z,6.93
2023-03-06T20:10:32.880Z,6.38
2023-03-06T20:13:39.450Z,6.10
2023-03-06T20:16:45.249Z,6.93
2023-03-06T20:19:48.817Z,6.85
2023-03-06T20:22:52.515Z,6.82
2023-03-06T20:25:57.043Z,6.22
2023-03-06T20:29:00.401Z,5.43
2023-03-06T20:32:04.443Z,5.82
2023-03-06T20:35:08.757Z,6.68
2023-03-06T20:38:12.964Z,6.65
2023-03-06T20:41:27.935Z,5.90
2023-03-06T20:44:32.195Z,5.28
2023-03-06T20:47:36.247Z,5.47
2023-03-06T20:50:39.522Z,5.25
2023-03-06T20:53:43.179Z,4.95
2023-03-06T20:56:49.889Z,4.95
2023-03-06T20:59:52.901Z,4.80
2023-03-06T21:02:56.881Z,6.28
2023-03-06T21:06:00.590Z,5.03
2023-03-06T21:09:05.945Z,4.50
2023-03-06T21:12:08.982Z,5.38
2023-03-06T21:15:13.599Z,4.50
2023-03-06T21:18:17.342Z,4.78
2023-03-06T21:21:23.326Z,5.70
2023-03-06T21:24:27.063Z,4.43
2023-03-06T21:27:30.750Z,4.75
2023-03-06T21:30:35.264Z,4.88
2023-03-06T21:33:39.991Z,4.47
2023-03-06T21:36:44.062Z,4.68
2023-03-06T21:39:47.763Z,4.80
2023-03-06T21:42:51.532Z,5.80
2023-03-06T21:45:59.078Z,5.13
2023-03-06T21:49:04.812Z,7.57
2023-03-06T21:52:09.091Z,7.68
2023-03-06T21:55:12.300Z,8.77
2023-03-06T21:58:16.405Z,8.20
2023-03-06T22:01:24.991Z,9.02
2023-03-06T22:04:28.343Z,7.97
2023-03-06T22:07:35.477Z,10.90
2023-03-06T22:10:42.450Z,12.18
2023-03-06T22:13:46.756Z,11.47
2023-03-06T22:16:52.143Z,11.73
2023-03-06T22:19:55.795Z,11.80
2023-03-06T22:22:58.775Z,10.48
2023-03-06T22:26:06.251Z,9.82
2023-03-06T22:29:09.963Z,10.50
2023-03-06T22:32:14.491Z,9.90
2023-03-06T22:35:21.787Z,9.70
2023-03-06T22:38:27.297Z,10.57
2023-03-06T22:41:32.602Z,8.68
2023-03-06T22:44:37.017Z,9.43
2023-03-06T22:47:41.588Z,9.38
2023-03-06T22:50:45.238Z,8.55
2023-03-06T22:53:51.257Z,10.75
2023-03-06T22:56:55.844Z,12.40
2023-03-06T23:00:01.372Z,15.60
2023-03-06T23:03:06.974Z,15.57
2023-03-06T23:06:15.548Z,19.05
2023-03-06T23:09:22.690Z,19.52
2023-03-06T23:12:46.373Z,18.27
2023-03-06T23:16:10.674Z,20.05
2023-03-06T23:19:32.994Z,18.75
2023-03-06T23:22:55.647Z,14.63
2023-03-06T23:26:20.140Z,14.13
2023-03-06T23:29:26.058Z,11.20
2023-03-06T23:32:34.813Z,13.37
2023-03-06T23:35:41.469Z,13.52
2023-03-06T23:38:48.695Z,12.95
2023-03-06T23:41:54.977Z,12.73
2023-03-06T23:45:00.830Z,12.65
2023-03-06T23:48:09.349Z,12.50
2023-03-06T23:51:20.292Z,11.18
2023-03-06T23:54:26.683Z,5.95
2023-03-06T23:57:34.121Z,8.15
